sensor_id;sensor_type;location;lat;lon;timestamp;P1;durP1;ratioP1;P2;durP2;ratioP2
65039;SDS011;51606;45.000;38.612;2023-09-12T05:03:52;7.15;;;4.22;;
65039;SDS011;51606;45.000;38.612;2023-09-12T05:06:18;14.50;;;4.57;;
65039;SDS011;51606;45.000;38.612;2023-09-12T05:08:45;13.95;;;4.70;;
65039;SDS011;51606;45.000;38.612;2023-09-12T05:11:11;8.55;;;4.65;;
65039;SDS011;51606;45.000;38.612;2023-09-12T05:13:38;9.82;;;4.70;;
65039;SDS011;51606;45.000;38.612;2023-09-12T05:16:04;9.40;;;5.70;;
65039;SDS011;51606;45.000;38.612;2023-09-12T05:18:31;7.30;;;5.20;;
65039;SDS011;51606;45.000;38.612;2023-09-12T05:20:57;9.55;;;5.38;;
65039;SDS011;51606;45.000;38.612;2023-09-12T05:23:24;18.00;;;5.57;;
65039;SDS011;51606;45.000;38.612;2023-09-12T05:25:50;8.02;;;4.53;;
65039;SDS011;51606;45.000;38.612;2023-09-12T05:28:17;10.43;;;4.50;;
65039;SDS011;51606;45.000;38.612;2023-09-12T05:30:47;10.68;;;4.78;;
65039;SDS011;51606;45.000;38.612;2023-09-12T05:33:13;7.85;;;5.32;;
65039;SDS011;51606;45.000;38.612;2023-09-12T05:35:40;9.68;;;4.38;;
65039;SDS011;51606;45.000;38.612;2023-09-12T05:38:06;10.98;;;4.45;;
65039;SDS011;51606;45.000;38.612;2023-09-12T05:40:32;6.55;;;4.57;;
65039;SDS011;51606;45.000;38.612;2023-09-12T05:42:59;10.05;;;5.07;;
65039;SDS011;51606;45.000;38.612;2023-09-12T05:45:25;13.20;;;4.75;;
65039;SDS011;51606;45.000;38.612;2023-09-12T05:47:54;17.52;;;4.65;;
65039;SDS011;51606;45.000;38.612;2023-09-12T05:50:21;18.63;;;4.65;;
65039;SDS011;51606;45.000;38.612;2023-09-12T05:52:47;12.35;;;6.18;;
65039;SDS011;51606;45.000;38.612;2023-09-12T05:55:14;9.20;;;4.90;;
65039;SDS011;51606;45.000;38.612;2023-09-12T05:57:41;15.20;;;4.90;;
65039;SDS011;51606;45.000;38.612;2023-09-12T06:00:07;12.95;;;4.78;;
65039;SDS011;51606;45.000;38.612;2023-09-12T06:02:38;10.45;;;4.60;;
65039;SDS011;51606;45.000;38.612;2023-09-12T06:05:05;19.00;;;4.43;;
65039;SDS011;51606;45.000;38.612;2023-09-12T06:07:32;11.10;;;4.95;;
65039;SDS011;51606;45.000;38.612;2023-09-12T06:09:58;6.20;;;3.92;;
65039;SDS011;51606;45.000;38.612;2023-09-12T06:12:25;9.80;;;3.92;;
65039;SDS011;51606;45.000;38.612;2023-09-12T06:14:51;8.45;;;4.03;;
65039;SDS011;51606;45.000;38.612;2023-09-12T06:17:19;5.72;;;3.83;;
65039;SDS011;51606;45.000;38.612;2023-09-12T06:19:47;10.20;;;4.45;;
65039;SDS011;51606;45.000;38.612;2023-09-12T06:22:15;7.18;;;3.70;;
65039;SDS011;51606;45.000;38.612;2023-09-12T06:24:43;7.30;;;4.28;;
65039;SDS011;51606;45.000;38.612;2023-09-12T06:27:10;7.47;;;4.00;;
65039;SDS011;51606;45.000;38.612;2023-09-12T06:32:11;8.50;;;3.58;;
65039;SDS011;51606;45.000;38.612;2023-09-12T06:34:38;5.90;;;3.47;;
65039;SDS011;51606;45.000;38.612;2023-09-12T06:37:04;12.45;;;3.30;;
65039;SDS011;51606;45.000;38.612;2023-09-12T06:39:30;9.82;;;3.20;;
65039;SDS011;51606;45.000;38.612;2023-09-12T06:41:57;7.07;;;3.38;;
65039;SDS011;51606;45.000;38.612;2023-09-12T06:44:23;5.65;;;3.30;;
65039;SDS011;51606;45.000;38.612;2023-09-12T06:46:50;6.50;;;3.17;;
65039;SDS011;51606;45.000;38.612;2023-09-12T06:49:16;8.02;;;3.72;;
65039;SDS011;51606;45.000;38.612;2023-09-12T06:51:42;6.07;;;3.60;;
65039;SDS011;51606;45.000;38.612;2023-09-12T06:54:09;11.98;;;3.83;;
65039;SDS011;51606;45.000;38.612;2023-09-12T06:56:35;7.65;;;3.30;;
65039;SDS011;51606;45.000;38.612;2023-09-12T06:59:06;5.13;;;3.38;;
65039;SDS011;51606;45.000;38.612;2023-09-12T07:01:33;7.07;;;3.70;;
65039;SDS011;51606;45.000;38.612;2023-09-12T07:03:59;10.30;;;3.03;;
65039;SDS011;51606;45.000;38.612;2023-09-12T07:06:26;7.97;;;3.35;;
65039;SDS011;51606;45.000;38.612;2023-09-12T07:08:53;4.88;;;3.20;;
65039;SDS011;51606;45.000;38.612;2023-09-12T07:11:19;3.95;;;2.75;;
65039;SDS011;51606;45.000;38.612;2023-09-12T07:13:46;6.78;;;2.92;;
65039;SDS011;51606;45.000;38.612;2023-09-12T07:16:12;6.25;;;3.13;;
65039;SDS011;51606;45.000;38.612;2023-09-12T07:18:38;5.90;;;3.25;;
65039;SDS011;51606;45.000;38.612;2023-09-12T07:21:05;5.47;;;2.90;;
65039;SDS011;51606;45.000;38.612;2023-09-12T07:23:32;6.70;;;3.17;;
65039;SDS011;51606;45.000;38.612;2023-09-12T07:25:59;10.55;;;2.78;;
65039;SDS011;51606;45.000;38.612;2023-09-12T07:28:26;4.40;;;3.13;;
65039;SDS011;51606;45.000;38.612;2023-09-12T07:30:53;8.05;;;3.22;;
65039;SDS011;51606;45.000;38.612;2023-09-12T07:33:20;4.45;;;2.40;;
65039;SDS011;51606;45.000;38.612;2023-09-12T07:35:47;4.53;;;2.80;;
65039;SDS011;51606;45.000;38.612;2023-09-12T07:38:14;6.40;;;3.20;;
65039;SDS011;51606;45.000;38.612;2023-09-12T07:40:41;7.72;;;3.25;;
65039;SDS011;51606;45.000;38.612;2023-09-12T07:43:09;6.00;;;3.15;;
65039;SDS011;51606;45.000;38.612;2023-09-12T07:45:35;4.80;;;2.78;;
65039;SDS011;51606;45.000;38.612;2023-09-12T07:48:12;4.88;;;2.80;;
65039;SDS011;51606;45.000;38.612;2023-09-12T07:50:38;6.75;;;2.90;;
65039;SDS011;51606;45.000;38.612;2023-09-12T07:53:05;4.22;;;2.72;;
65039;SDS011;51606;45.000;38.612;2023-09-12T07:55:32;4.05;;;2.53;;
65039;SDS011;51606;45.000;38.612;2023-09-12T07:58:14;10.45;;;3.10;;
65039;SDS011;51606;45.000;38.612;2023-09-12T08:00:41;6.75;;;2.90;;
65039;SDS011;51606;45.000;38.612;2023-09-12T08:03:08;3.70;;;2.72;;
65039;SDS011;51606;45.000;38.612;2023-09-12T08:05:34;9.48;;;3.05;;
65039;SDS011;51606;45.000;38.612;2023-09-12T08:08:01;8.48;;;3.00;;
65039;SDS011;51606;45.000;38.612;2023-09-12T08:10:27;7.70;;;3.30;;
65039;SDS011;51606;45.000;38.612;2023-09-12T08:12:54;7.07;;;3.08;;
65039;SDS011;51606;45.000;38.612;2023-09-12T08:15:21;9.25;;;3.30;;
65039;SDS011;51606;45.000;38.612;2023-09-12T08:17:47;5.88;;;4.00;;
65039;SDS011;51606;45.000;38.612;2023-09-12T08:20:17;11.63;;;4.03;;
65039;SDS011;51606;45.000;38.612;2023-09-12T08:22:45;4.43;;;3.25;;
65039;SDS011;51606;45.000;38.612;2023-09-12T08:25:11;6.18;;;3.42;;
65039;SDS011;51606;45.000;38.612;2023-09-12T08:27:40;5.38;;;3.60;;
65039;SDS011;51606;45.000;38.612;2023-09-12T08:30:08;9.48;;;4.35;;
65039;SDS011;51606;45.000;38.612;2023-09-12T08:32:35;9.38;;;3.60;;
65039;SDS011;51606;45.000;38.612;2023-09-12T08:42:59;14.68;;;4.40;;
65039;SDS011;51606;45.000;38.612;2023-09-12T08:45:25;6.22;;;4.00;;
65039;SDS011;51606;45.000;38.612;2023-09-12T08:47:53;10.98;;;3.55;;
65039;SDS011;51606;45.000;38.612;2023-09-12T08:50:21;6.05;;;3.47;;
65039;SDS011;51606;45.000;38.612;2023-09-12T08:52:49;5.70;;;3.83;;
65039;SDS011;51606;45.000;38.612;2023-09-12T08:55:15;7.85;;;3.70;;
65039;SDS011;51606;45.000;38.612;2023-09-12T08:57:43;4.80;;;3.03;;
65039;SDS011;51606;45.000;38.612;2023-09-12T09:00:14;4.68;;;3.38;;
65039;SDS011;51606;45.000;38.612;2023-09-12T09:02:41;11.38;;;3.08;;
65039;SDS011;51606;45.000;38.612;2023-09-12T09:05:11;6.50;;;3.45;;
65039;SDS011;51606;45.000;38.612;2023-09-12T09:07:38;15.00;;;3.90;;
65039;SDS011;51606;45.000;38.612;2023-09-12T09:10:16;9.18;;;3.33;;
65039;SDS011;51606;45.000;38.612;2023-09-12T09:12:45;4.72;;;2.97;;
65039;SDS011;51606;45.000;38.612;2023-09-12T09:15:21;18.27;;;3.30;;
65039;SDS011;51606;45.000;38.612;2023-09-12T09:17:52;6.85;;;3.30;;
65039;SDS011;51606;45.000;38.612;2023-09-12T09:25:24;3.83;;;2.55;;
65039;SDS011;51606;45.000;38.612;2023-09-12T09:27:50;12.55;;;2.78;;
65039;SDS011;51606;45.000;38.612;2023-09-12T09:30:16;3.70;;;2.70;;
65039;SDS011;51606;45.000;38.612;2023-09-12T09:32:44;4.28;;;2.75;;
65039;SDS011;51606;45.000;38.612;2023-09-12T09:35:11;3.75;;;2.58;;
65039;SDS011;51606;45.000;38.612;2023-09-12T09:37:37;8.95;;;3.20;;
65039;SDS011;51606;45.000;38.612;2023-09-12T09:40:05;4.68;;;2.38;;
65039;SDS011;51606;45.000;38.612;2023-09-12T09:42:33;12.15;;;2.67;;
65039;SDS011;51606;45.000;38.612;2023-09-12T09:44:59;3.15;;;2.45;;
65039;SDS011;51606;45.000;38.612;2023-09-12T09:47:26;3.65;;;2.40;;
65039;SDS011;51606;45.000;38.612;2023-09-12T09:49:53;6.03;;;2.50;;
65039;SDS011;51606;45.000;38.612;2023-09-12T09:52:25;5.05;;;2.65;;
65039;SDS011;51606;45.000;38.612;2023-09-12T09:54:53;6.80;;;2.75;;
65039;SDS011;51606;45.000;38.612;2023-09-12T09:57:19;3.72;;;2.58;;
65039;SDS011;51606;45.000;38.612;2023-09-12T09:59:49;15.18;;;2.35;;
65039;SDS011;51606;45.000;38.612;2023-09-12T10:02:19;2.60;;;2.17;;
65039;SDS011;51606;45.000;38.612;2023-09-12T10:04:52;2.95;;;2.20;;
65039;SDS011;51606;45.000;38.612;2023-09-12T10:07:19;8.35;;;2.50;;
65039;SDS011;51606;45.000;38.612;2023-09-12T10:09:47;17.30;;;2.83;;
65039;SDS011;51606;45.000;38.612;2023-09-12T10:12:13;6.78;;;2.72;;
65039;SDS011;51606;45.000;38.612;2023-09-12T10:14:40;3.30;;;2.30;;
65039;SDS011;51606;45.000;38.612;2023-09-12T10:17:08;2.80;;;2.35;;
65039;SDS011;51606;45.000;38.612;2023-09-12T10:19:38;4.68;;;2.50;;
65039;SDS011;51606;45.000;38.612;2023-09-12T10:22:24;4.82;;;2.17;;
65039;SDS011;51606;45.000;38.612;2023-09-12T10:24:56;2.22;;;1.80;;
65039;SDS011;51606;45.000;38.612;2023-09-12T10:27:23;2.47;;;2.00;;
65039;SDS011;51606;45.000;38.612;2023-09-12T10:29:51;5.28;;;2.17;;
65039;SDS011;51606;45.000;38.612;2023-09-12T10:32:19;3.78;;;2.10;;
65039;SDS011;51606;45.000;38.612;2023-09-12T10:34:46;3.08;;;2.45;;
65039;SDS011;51606;45.000;38.612;2023-09-12T10:37:18;15.65;;;2.15;;
65039;SDS011;51606;45.000;38.612;2023-09-12T10:39:48;3.47;;;1.80;;
65039;SDS011;51606;45.000;38.612;2023-09-12T10:42:16;7.30;;;2.13;;
65039;SDS011;51606;45.000;38.612;2023-09-12T10:44:43;5.60;;;2.13;;
65039;SDS011;51606;45.000;38.612;2023-09-12T10:47:12;2.47;;;1.85;;
65039;SDS011;51606;45.000;38.612;2023-09-12T10:49:39;2.72;;;1.70;;
65039;SDS011;51606;45.000;38.612;2023-09-12T10:52:09;9.40;;;1.77;;
65039;SDS011;51606;45.000;38.612;2023-09-12T10:54:38;2.90;;;1.95;;
65039;SDS011;51606;45.000;38.612;2023-09-12T10:57:06;4.38;;;2.30;;
65039;SDS011;51606;45.000;38.612;2023-09-12T10:59:36;2.70;;;2.00;;
65039;SDS011;51606;45.000;38.612;2023-09-12T11:02:29;14.45;;;2.63;;
65039;SDS011;51606;45.000;38.612;2023-09-12T11:04:58;3.88;;;2.00;;
65039;SDS011;51606;45.000;38.612;2023-09-12T11:07:32;3.35;;;1.90;;
65039;SDS011;51606;45.000;38.612;2023-09-12T11:12:46;11.05;;;2.03;;
65039;SDS011;51606;45.000;38.612;2023-09-12T11:15:15;2.92;;;2.05;;
65039;SDS011;51606;45.000;38.612;2023-09-12T11:17:46;8.52;;;2.20;;
65039;SDS011;51606;45.000;38.612;2023-09-12T11:20:14;2.40;;;1.60;;
65039;SDS011;51606;45.000;38.612;2023-09-12T11:22:45;4.78;;;2.10;;
65039;SDS011;51606;45.000;38.612;2023-09-12T11:25:22;3.10;;;2.20;;
65039;SDS011;51606;45.000;38.612;2023-09-12T11:30:21;6.78;;;1.80;;
65039;SDS011;51606;45.000;38.612;2023-09-12T11:32:49;3.83;;;2.17;;
65039;SDS011;51606;45.000;38.612;2023-09-12T11:35:21;2.72;;;1.95;;
65039;SDS011;51606;45.000;38.612;2023-09-12T11:37:50;4.47;;;2.63;;
65039;SDS011;51606;45.000;38.612;2023-09-12T11:43:00;2.63;;;2.13;;
65039;SDS011;51606;45.000;38.612;2023-09-12T11:45:27;3.55;;;2.35;;
65039;SDS011;51606;45.000;38.612;2023-09-12T11:47:54;2.88;;;2.00;;
65039;SDS011;51606;45.000;38.612;2023-09-12T11:50:33;3.35;;;2.35;;
65039;SDS011;51606;45.000;38.612;2023-09-12T11:53:08;6.80;;;2.20;;
65039;SDS011;51606;45.000;38.612;2023-09-12T11:55:46;5.40;;;1.92;;
65039;SDS011;51606;45.000;38.612;2023-09-12T11:58:14;4.80;;;2.38;;
65039;SDS011;51606;45.000;38.612;2023-09-12T12:00:45;6.05;;;2.00;;
65039;SDS011;51606;45.000;38.612;2023-09-12T12:03:17;4.22;;;1.95;;
65039;SDS011;51606;45.000;38.612;2023-09-12T12:05:47;2.20;;;1.95;;
65039;SDS011;51606;45.000;38.612;2023-09-12T12:08:14;2.13;;;1.75;;
65039;SDS011;51606;45.000;38.612;2023-09-12T12:10:42;6.70;;;2.05;;
65039;SDS011;51606;45.000;38.612;2023-09-12T12:54:03;2.97;;;1.55;;
65039;SDS011;51606;45.000;38.612;2023-09-12T12:56:31;6.68;;;2.05;;
65039;SDS011;51606;45.000;38.612;2023-09-12T12:58:59;7.25;;;2.00;;
65039;SDS011;51606;45.000;38.612;2023-09-12T13:01:42;2.88;;;1.80;;
65039;SDS011;51606;45.000;38.612;2023-09-12T13:04:10;13.77;;;2.13;;
65039;SDS011;51606;45.000;38.612;2023-09-12T13:06:37;6.38;;;1.83;;
65039;SDS011;51606;45.000;38.612;2023-09-12T13:09:04;3.20;;;1.98;;
65039;SDS011;51606;45.000;38.612;2023-09-12T13:11:31;11.10;;;2.53;;
65039;SDS011;51606;45.000;38.612;2023-09-12T13:14:01;4.75;;;2.38;;
65039;SDS011;51606;45.000;38.612;2023-09-12T13:16:35;4.77;;;2.40;;
65039;SDS011;51606;45.000;38.612;2023-09-12T13:19:01;6.10;;;2.17;;
65039;SDS011;51606;45.000;38.612;2023-09-12T13:21:28;8.50;;;3.00;;
65039;SDS011;51606;45.000;38.612;2023-09-12T13:23:57;5.78;;;2.70;;
65039;SDS011;51606;45.000;38.612;2023-09-12T13:26:24;6.28;;;3.15;;
65039;SDS011;51606;45.000;38.612;2023-09-12T13:28:50;9.35;;;2.50;;
65039;SDS011;51606;45.000;38.612;2023-09-12T13:31:16;11.60;;;2.33;;
65039;SDS011;51606;45.000;38.612;2023-09-12T13:33:43;5.40;;;2.05;;
65039;SDS011;51606;45.000;38.612;2023-09-12T13:36:09;4.82;;;2.78;;
65039;SDS011;51606;45.000;38.612;2023-09-12T13:38:35;2.60;;;2.05;;
65039;SDS011;51606;45.000;38.612;2023-09-12T13:41:02;2.95;;;1.80;;
65039;SDS011;51606;45.000;38.612;2023-09-12T13:43:28;3.83;;;2.22;;
65039;SDS011;51606;45.000;38.612;2023-09-12T13:45:56;10.02;;;2.30;;
65039;SDS011;51606;45.000;38.612;2023-09-12T13:48:22;2.47;;;1.88;;
65039;SDS011;51606;45.000;38.612;2023-09-12T13:50:48;8.68;;;2.40;;
65039;SDS011;51606;45.000;38.612;2023-09-12T13:53:15;2.33;;;1.88;;
65039;SDS011;51606;45.000;38.612;2023-09-12T13:55:41;6.32;;;2.22;;
65039;SDS011;51606;45.000;38.612;2023-09-12T13:58:07;2.90;;;1.95;;
65039;SDS011;51606;45.000;38.612;2023-09-12T14:00:34;7.30;;;3.05;;
65039;SDS011;51606;45.000;38.612;2023-09-12T14:03:01;7.03;;;1.98;;
65039;SDS011;51606;45.000;38.612;2023-09-12T14:05:28;2.55;;;1.80;;
65039;SDS011;51606;45.000;38.612;2023-09-12T14:07:55;4.38;;;2.17;;
65039;SDS011;51606;45.000;38.612;2023-09-12T14:10:21;4.10;;;2.63;;
65039;SDS011;51606;45.000;38.612;2023-09-12T14:12:50;4.63;;;2.53;;
65039;SDS011;51606;45.000;38.612;2023-09-12T14:15:17;6.80;;;2.58;;
65039;SDS011;51606;45.000;38.612;2023-09-12T14:17:43;11.15;;;2.92;;
65039;SDS011;51606;45.000;38.612;2023-09-12T14:20:13;8.57;;;2.28;;
65039;SDS011;51606;45.000;38.612;2023-09-12T14:22:41;21.25;;;3.35;;
65039;SDS011;51606;45.000;38.612;2023-09-12T14:25:09;15.23;;;3.63;;
65039;SDS011;51606;45.000;38.612;2023-09-12T14:27:42;9.23;;;3.00;;
65039;SDS011;51606;45.000;38.612;2023-09-12T14:30:10;16.63;;;5.30;;
65039;SDS011;51606;45.000;38.612;2023-09-12T14:32:39;5.72;;;2.97;;
65039;SDS011;51606;45.000;38.612;2023-09-12T14:35:06;8.07;;;3.60;;
65039;SDS011;51606;45.000;38.612;2023-09-12T14:37:35;4.78;;;2.55;;
65039;SDS011;51606;45.000;38.612;2023-09-12T14:40:03;14.18;;;2.90;;
65039;SDS011;51606;45.000;38.612;2023-09-12T14:42:30;6.72;;;3.00;;
65039;SDS011;51606;45.000;38.612;2023-09-12T14:44:57;9.88;;;2.40;;
65039;SDS011;51606;45.000;38.612;2023-09-12T14:47:23;4.32;;;2.40;;
65039;SDS011;51606;45.000;38.612;2023-09-12T14:49:52;6.35;;;2.60;;
65039;SDS011;51606;45.000;38.612;2023-09-12T14:52:19;3.72;;;2.35;;
65039;SDS011;51606;45.000;38.612;2023-09-12T14:54:46;11.50;;;2.70;;
65039;SDS011;51606;45.000;38.612;2023-09-12T14:57:12;5.70;;;2.47;;
65039;SDS011;51606;45.000;38.612;2023-09-12T14:59:39;4.70;;;2.80;;
65039;SDS011;51606;45.000;38.612;2023-09-12T15:02:05;4.97;;;2.83;;
65039;SDS011;51606;45.000;38.612;2023-09-12T15:04:32;11.95;;;3.42;;
65039;SDS011;51606;45.000;38.612;2023-09-12T15:06:59;11.00;;;2.80;;
65039;SDS011;51606;45.000;38.612;2023-09-12T15:09:25;11.57;;;3.03;;
65039;SDS011;51606;45.000;38.612;2023-09-12T15:11:52;13.73;;;3.10;;
65039;SDS011;51606;45.000;38.612;2023-09-12T15:14:18;3.67;;;2.53;;
65039;SDS011;51606;45.000;38.612;2023-09-12T15:16:44;7.40;;;3.75;;
65039;SDS011;51606;45.000;38.612;2023-09-12T15:19:11;13.52;;;2.72;;
65039;SDS011;51606;45.000;38.612;2023-09-12T15:21:37;21.33;;;3.22;;
65039;SDS011;51606;45.000;38.612;2023-09-12T15:24:03;9.65;;;3.42;;
65039;SDS011;51606;45.000;38.612;2023-09-12T15:26:30;20.15;;;4.57;;
65039;SDS011;51606;45.000;38.612;2023-09-12T15:28:57;55.40;;;4.93;;
65039;SDS011;51606;45.000;38.612;2023-09-12T15:31:24;17.88;;;3.80;;
65039;SDS011;51606;45.000;38.612;2023-09-12T15:33:50;15.55;;;3.40;;
65039;SDS011;51606;45.000;38.612;2023-09-12T15:36:17;14.00;;;3.80;;
65039;SDS011;51606;45.000;38.612;2023-09-12T15:38:43;10.65;;;2.58;;
65039;SDS011;51606;45.000;38.612;2023-09-12T15:41:10;15.07;;;2.50;;
65039;SDS011;51606;45.000;38.612;2023-09-12T15:43:37;7.45;;;2.85;;
65039;SDS011;51606;45.000;38.612;2023-09-12T15:46:03;9.10;;;3.38;;
65039;SDS011;51606;45.000;38.612;2023-09-12T15:48:30;8.45;;;2.72;;
65039;SDS011;51606;45.000;38.612;2023-09-12T15:50:56;12.48;;;3.42;;
65039;SDS011;51606;45.000;38.612;2023-09-12T15:53:23;11.63;;;3.05;;
65039;SDS011;51606;45.000;38.612;2023-09-12T16:04:05;7.65;;;3.35;;
65039;SDS011;51606;45.000;38.612;2023-09-12T16:06:32;19.25;;;2.63;;
65039;SDS011;51606;45.000;38.612;2023-09-12T16:08:58;7.97;;;2.10;;
65039;SDS011;51606;45.000;38.612;2023-09-12T16:11:25;12.25;;;2.35;;
65039;SDS011;51606;45.000;38.612;2023-09-12T16:13:52;9.07;;;2.90;;
65039;SDS011;51606;45.000;38.612;2023-09-12T16:16:19;4.85;;;2.28;;
65039;SDS011;51606;45.000;38.612;2023-09-12T16:18:46;10.25;;;2.60;;
65039;SDS011;51606;45.000;38.612;2023-09-12T16:21:13;17.35;;;2.67;;
65039;SDS011;51606;45.000;38.612;2023-09-12T16:23:40;8.60;;;2.83;;
65039;SDS011;51606;45.000;38.612;2023-09-12T16:26:06;10.80;;;2.22;;
65039;SDS011;51606;45.000;38.612;2023-09-12T16:28:33;7.13;;;2.47;;
65039;SDS011;51606;45.000;38.612;2023-09-12T16:30:59;2.85;;;1.83;;
65039;SDS011;51606;45.000;38.612;2023-09-12T16:33:26;13.27;;;2.13;;
65039;SDS011;51606;45.000;38.612;2023-09-12T16:35:53;3.65;;;2.13;;
65039;SDS011;51606;45.000;38.612;2023-09-12T16:38:19;7.18;;;2.58;;
65039;SDS011;51606;45.000;38.612;2023-09-12T16:40:46;14.10;;;2.60;;
65039;SDS011;51606;45.000;38.612;2023-09-12T16:43:12;18.75;;;2.80;;
65039;SDS011;51606;45.000;38.612;2023-09-12T16:45:39;10.93;;;2.83;;
65039;SDS011;51606;45.000;38.612;2023-09-12T16:48:05;8.02;;;2.30;;
65039;SDS011;51606;45.000;38.612;2023-09-12T16:50:32;4.28;;;2.35;;
65039;SDS011;51606;45.000;38.612;2023-09-12T16:52:58;4.85;;;2.30;;
65039;SDS011;51606;45.000;38.612;2023-09-12T16:55:24;2.97;;;2.10;;
65039;SDS011;51606;45.000;38.612;2023-09-12T16:57:52;12.73;;;2.83;;
65039;SDS011;51606;45.000;38.612;2023-09-12T17:00:18;13.68;;;2.42;;
65039;SDS011;51606;45.000;38.612;2023-09-12T17:02:44;4.25;;;1.90;;
65039;SDS011;51606;45.000;38.612;2023-09-12T17:05:11;24.38;;;2.40;;
65039;SDS011;51606;45.000;38.612;2023-09-12T17:07:37;5.90;;;2.50;;
65039;SDS011;51606;45.000;38.612;2023-09-12T17:10:04;6.53;;;2.10;;
65039;SDS011;51606;45.000;38.612;2023-09-12T17:12:31;4.07;;;2.30;;
65039;SDS011;51606;45.000;38.612;2023-09-12T17:14:57;8.52;;;2.70;;
65039;SDS011;51606;45.000;38.612;2023-09-12T17:17:24;2.83;;;2.22;;
65039;SDS011;51606;45.000;38.612;2023-09-12T17:19:50;3.00;;;2.17;;
65039;SDS011;51606;45.000;38.612;2023-09-12T17:22:17;6.93;;;2.40;;
65039;SDS011;51606;45.000;38.612;2023-09-12T17:24:43;4.38;;;2.28;;
65039;SDS011;51606;45.000;38.612;2023-09-12T17:27:12;7.80;;;2.05;;
65039;SDS011;51606;45.000;38.612;2023-09-12T17:29:38;2.17;;;1.67;;
65039;SDS011;51606;45.000;38.612;2023-09-12T17:32:08;2.47;;;1.85;;
65039;SDS011;51606;45.000;38.612;2023-09-12T17:37:09;3.35;;;2.20;;
65039;SDS011;51606;45.000;38.612;2023-09-12T17:39:36;3.47;;;2.35;;
65039;SDS011;51606;45.000;38.612;2023-09-12T17:42:03;6.93;;;2.58;;
65039;SDS011;51606;45.000;38.612;2023-09-12T17:44:30;5.90;;;2.95;;
65039;SDS011;51606;45.000;38.612;2023-09-12T17:46:57;12.35;;;2.63;;
65039;SDS011;51606;45.000;38.612;2023-09-12T17:49:24;5.32;;;2.95;;
65039;SDS011;51606;45.000;38.612;2023-09-12T17:51:51;5.88;;;3.00;;
